sensor_id;sensor_type;location;lat;lon;timestamp;P1;durP1;ratioP1;P2;durP2;ratioP2
54679;SDS011;40578;53.178;5.846;2023-05-17T00:02:12;24.87;;;3.83;;
54679;SDS011;40578;53.178;5.846;2023-05-17T00:04:37;17.23;;;3.30;;
54679;SDS011;40578;53.178;5.846;2023-05-17T00:07:03;15.90;;;3.77;;
54679;SDS011;40578;53.178;5.846;2023-05-17T00:09:28;16.50;;;3.50;;
54679;SDS011;40578;53.178;5.846;2023-05-17T00:11:54;16.37;;;4.47;;
54679;SDS011;40578;53.178;5.846;2023-05-17T00:14:20;17.80;;;3.57;;
54679;SDS011;40578;53.178;5.846;2023-05-17T00:16:45;21.87;;;4.33;;
54679;SDS011;40578;53.178;5.846;2023-05-17T00:19:11;20.80;;;4.00;;
54679;SDS011;40578;53.178;5.846;2023-05-17T00:21:37;16.50;;;3.80;;
54679;SDS011;40578;53.178;5.846;2023-05-17T00:24:03;17.30;;;3.67;;
54679;SDS011;40578;53.178;5.846;2023-05-17T00:26:29;14.57;;;3.87;;
54679;SDS011;40578;53.178;5.846;2023-05-17T00:28:54;16.03;;;3.10;;
54679;SDS011;40578;53.178;5.846;2023-05-17T00:31:21;14.50;;;3.07;;
54679;SDS011;40578;53.178;5.846;2023-05-17T00:33:47;14.45;;;3.15;;
54679;SDS011;40578;53.178;5.846;2023-05-17T00:36:12;11.10;;;3.00;;
54679;SDS011;40578;53.178;5.846;2023-05-17T00:38:39;13.13;;;3.47;;
54679;SDS011;40578;53.178;5.846;2023-05-17T00:41:06;12.13;;;2.58;;
54679;SDS011;40578;53.178;5.846;2023-05-17T00:43:32;15.77;;;3.30;;
54679;SDS011;40578;53.178;5.846;2023-05-17T00:45:58;14.83;;;3.27;;
54679;SDS011;40578;53.178;5.846;2023-05-17T00:48:23;9.60;;;2.70;;
54679;SDS011;40578;53.178;5.846;2023-05-17T00:50:53;14.07;;;3.13;;
54679;SDS011;40578;53.178;5.846;2023-05-17T00:53:20;9.35;;;2.78;;
54679;SDS011;40578;53.178;5.846;2023-05-17T00:55:46;13.23;;;3.13;;
54679;SDS011;40578;53.178;5.846;2023-05-17T00:58:12;23.00;;;3.65;;
54679;SDS011;40578;53.178;5.846;2023-05-17T01:00:39;19.17;;;3.50;;
54679;SDS011;40578;53.178;5.846;2023-05-17T01:03:05;14.13;;;3.15;;
54679;SDS011;40578;53.178;5.846;2023-05-17T01:05:31;17.23;;;3.50;;
54679;SDS011;40578;53.178;5.846;2023-05-17T01:07:57;15.53;;;3.23;;
54679;SDS011;40578;53.178;5.846;2023-05-17T01:10:27;12.07;;;3.17;;
54679;SDS011;40578;53.178;5.846;2023-05-17T01:13:08;8.35;;;2.63;;
54679;SDS011;40578;53.178;5.846;2023-05-17T01:15:49;18.85;;;2.60;;
54679;SDS011;40578;53.178;5.846;2023-05-17T01:21:06;9.98;;;2.45;;
54679;SDS011;40578;53.178;5.846;2023-05-17T01:23:57;15.40;;;3.10;;
54679;SDS011;40578;53.178;5.846;2023-05-17T01:29:05;13.80;;;2.95;;
54679;SDS011;40578;53.178;5.846;2023-05-17T01:31:34;12.30;;;2.72;;
54679;SDS011;40578;53.178;5.846;2023-05-17T01:34:00;12.40;;;3.35;;
54679;SDS011;40578;53.178;5.846;2023-05-17T01:36:30;12.48;;;3.22;;
54679;SDS011;40578;53.178;5.846;2023-05-17T01:38:55;16.10;;;3.13;;
54679;SDS011;40578;53.178;5.846;2023-05-17T01:43:57;14.95;;;2.58;;
54679;SDS011;40578;53.178;5.846;2023-05-17T01:46:38;9.45;;;2.63;;
54679;SDS011;40578;53.178;5.846;2023-05-17T01:49:21;10.38;;;2.50;;
54679;SDS011;40578;53.178;5.846;2023-05-17T01:54:49;13.40;;;2.72;;
54679;SDS011;40578;53.178;5.846;2023-05-17T01:57:22;12.13;;;3.20;;
54679;SDS011;40578;53.178;5.846;2023-05-17T01:59:53;9.20;;;2.30;;
54679;SDS011;40578;53.178;5.846;2023-05-17T02:02:23;13.45;;;2.67;;
54679;SDS011;40578;53.178;5.846;2023-05-17T02:04:49;15.37;;;2.50;;
54679;SDS011;40578;53.178;5.846;2023-05-17T02:07:15;9.77;;;2.30;;
54679;SDS011;40578;53.178;5.846;2023-05-17T02:09:41;13.23;;;2.37;;
54679;SDS011;40578;53.178;5.846;2023-05-17T02:12:07;9.53;;;2.40;;
54679;SDS011;40578;53.178;5.846;2023-05-17T02:14:32;14.48;;;2.70;;
54679;SDS011;40578;53.178;5.846;2023-05-17T02:16:58;13.97;;;3.30;;
54679;SDS011;40578;53.178;5.846;2023-05-17T02:19:24;9.50;;;2.03;;
54679;SDS011;40578;53.178;5.846;2023-05-17T02:21:51;9.73;;;2.27;;
54679;SDS011;40578;53.178;5.846;2023-05-17T02:24:16;11.30;;;2.20;;
54679;SDS011;40578;53.178;5.846;2023-05-17T02:26:42;8.13;;;2.30;;
54679;SDS011;40578;53.178;5.846;2023-05-17T02:29:08;13.47;;;2.50;;
54679;SDS011;40578;53.178;5.846;2023-05-17T02:31:36;9.25;;;2.03;;
54679;SDS011;40578;53.178;5.846;2023-05-17T02:34:02;14.90;;;2.73;;
54679;SDS011;40578;53.178;5.846;2023-05-17T02:36:28;8.93;;;2.23;;
54679;SDS011;40578;53.178;5.846;2023-05-17T02:38:53;9.33;;;2.50;;
54679;SDS011;40578;53.178;5.846;2023-05-17T02:41:19;14.83;;;2.73;;
54679;SDS011;40578;53.178;5.846;2023-05-17T02:43:45;8.27;;;2.03;;
54679;SDS011;40578;53.178;5.846;2023-05-17T02:46:10;7.17;;;2.10;;
54679;SDS011;40578;53.178;5.846;2023-05-17T02:48:36;13.00;;;2.70;;
54679;SDS011;40578;53.178;5.846;2023-05-17T02:51:02;9.47;;;2.20;;
54679;SDS011;40578;53.178;5.846;2023-05-17T02:53:27;9.87;;;2.27;;
54679;SDS011;40578;53.178;5.846;2023-05-17T02:55:53;11.27;;;2.40;;
54679;SDS011;40578;53.178;5.846;2023-05-17T02:58:22;15.38;;;2.72;;
54679;SDS011;40578;53.178;5.846;2023-05-17T03:03:14;9.25;;;2.45;;
54679;SDS011;40578;53.178;5.846;2023-05-17T03:05:40;6.47;;;2.00;;
54679;SDS011;40578;53.178;5.846;2023-05-17T03:08:06;11.87;;;2.30;;
54679;SDS011;40578;53.178;5.846;2023-05-17T03:10:32;8.57;;;2.10;;
54679;SDS011;40578;53.178;5.846;2023-05-17T03:12:57;14.87;;;2.20;;
54679;SDS011;40578;53.178;5.846;2023-05-17T03:15:23;13.03;;;2.93;;
54679;SDS011;40578;53.178;5.846;2023-05-17T03:17:51;12.20;;;2.08;;
54679;SDS011;40578;53.178;5.846;2023-05-17T03:20:17;7.57;;;2.17;;
54679;SDS011;40578;53.178;5.846;2023-05-17T03:22:43;10.13;;;2.30;;
54679;SDS011;40578;53.178;5.846;2023-05-17T03:25:08;10.70;;;2.07;;
54679;SDS011;40578;53.178;5.846;2023-05-17T03:27:34;9.77;;;2.37;;
54679;SDS011;40578;53.178;5.846;2023-05-17T03:30:00;9.27;;;2.00;;
54679;SDS011;40578;53.178;5.846;2023-05-17T03:32:26;10.63;;;2.27;;
54679;SDS011;40578;53.178;5.846;2023-05-17T03:34:52;10.20;;;2.63;;
54679;SDS011;40578;53.178;5.846;2023-05-17T03:37:17;6.97;;;1.73;;
54679;SDS011;40578;53.178;5.846;2023-05-17T03:39:43;7.33;;;2.10;;
54679;SDS011;40578;53.178;5.846;2023-05-17T03:42:11;14.77;;;2.00;;
54679;SDS011;40578;53.178;5.846;2023-05-17T03:44:36;7.30;;;1.77;;
54679;SDS011;40578;53.178;5.846;2023-05-17T03:47:02;10.83;;;2.17;;
54679;SDS011;40578;53.178;5.846;2023-05-17T03:49:28;9.37;;;2.00;;
54679;SDS011;40578;53.178;5.846;2023-05-17T03:51:53;7.50;;;1.73;;
54679;SDS011;40578;53.178;5.846;2023-05-17T03:54:19;10.10;;;1.87;;
54679;SDS011;40578;53.178;5.846;2023-05-17T03:56:45;14.67;;;2.43;;
54679;SDS011;40578;53.178;5.846;2023-05-17T03:59:13;9.00;;;2.10;;
54679;SDS011;40578;53.178;5.846;2023-05-17T04:01:38;8.37;;;1.70;;
54679;SDS011;40578;53.178;5.846;2023-05-17T04:04:06;9.48;;;1.77;;
54679;SDS011;40578;53.178;5.846;2023-05-17T04:06:32;6.55;;;1.50;;
54679;SDS011;40578;53.178;5.846;2023-05-17T04:08:57;7.30;;;1.60;;
54679;SDS011;40578;53.178;5.846;2023-05-17T04:11:24;6.95;;;1.58;;
54679;SDS011;40578;53.178;5.846;2023-05-17T04:13:51;9.25;;;2.10;;
54679;SDS011;40578;53.178;5.846;2023-05-17T04:16:18;8.43;;;1.85;;
54679;SDS011;40578;53.178;5.846;2023-05-17T04:18:44;7.22;;;1.83;;
54679;SDS011;40578;53.178;5.846;2023-05-17T04:21:10;11.07;;;2.17;;
54679;SDS011;40578;53.178;5.846;2023-05-17T04:23:36;10.10;;;2.00;;
54679;SDS011;40578;53.178;5.846;2023-05-17T04:26:02;9.20;;;1.90;;
54679;SDS011;40578;53.178;5.846;2023-05-17T04:28:29;5.88;;;1.75;;
54679;SDS011;40578;53.178;5.846;2023-05-17T04:30:55;8.65;;;2.13;;
54679;SDS011;40578;53.178;5.846;2023-05-17T04:33:21;11.07;;;2.90;;
54679;SDS011;40578;53.178;5.846;2023-05-17T04:35:49;9.50;;;2.22;;
54679;SDS011;40578;53.178;5.846;2023-05-17T04:38:19;9.82;;;2.05;;
54679;SDS011;40578;53.178;5.846;2023-05-17T04:40:44;9.73;;;2.47;;
54679;SDS011;40578;53.178;5.846;2023-05-17T04:43:10;11.90;;;2.30;;
54679;SDS011;40578;53.178;5.846;2023-05-17T04:45:36;8.70;;;1.93;;
54679;SDS011;40578;53.178;5.846;2023-05-17T04:48:02;6.77;;;1.90;;
54679;SDS011;40578;53.178;5.846;2023-05-17T04:50:27;8.38;;;2.30;;
54679;SDS011;40578;53.178;5.846;2023-05-17T04:52:53;7.10;;;1.87;;
54679;SDS011;40578;53.178;5.846;2023-05-17T04:55:20;10.43;;;2.43;;
54679;SDS011;40578;53.178;5.846;2023-05-17T05:00:11;7.05;;;2.00;;
54679;SDS011;40578;53.178;5.846;2023-05-17T05:02:39;8.57;;;2.03;;
54679;SDS011;40578;53.178;5.846;2023-05-17T05:05:06;6.93;;;1.80;;
54679;SDS011;40578;53.178;5.846;2023-05-17T05:07:33;13.57;;;2.28;;
54679;SDS011;40578;53.178;5.846;2023-05-17T05:09:59;6.53;;;2.40;;
54679;SDS011;40578;53.178;5.846;2023-05-17T05:12:25;6.17;;;2.00;;
54679;SDS011;40578;53.178;5.846;2023-05-17T05:14:50;8.93;;;1.80;;
54679;SDS011;40578;53.178;5.846;2023-05-17T05:17:16;11.80;;;2.23;;
54679;SDS011;40578;53.178;5.846;2023-05-17T05:19:43;12.20;;;2.30;;
54679;SDS011;40578;53.178;5.846;2023-05-17T05:22:08;9.93;;;2.17;;
54679;SDS011;40578;53.178;5.846;2023-05-17T05:24:35;12.88;;;2.08;;
54679;SDS011;40578;53.178;5.846;2023-05-17T05:27:00;9.87;;;1.70;;
54679;SDS011;40578;53.178;5.846;2023-05-17T05:29:26;6.63;;;2.00;;
54679;SDS011;40578;53.178;5.846;2023-05-17T05:31:52;11.50;;;2.00;;
54679;SDS011;40578;53.178;5.846;2023-05-17T05:34:18;11.53;;;2.17;;
54679;SDS011;40578;53.178;5.846;2023-05-17T05:36:43;6.73;;;2.10;;
54679;SDS011;40578;53.178;5.846;2023-05-17T05:39:09;7.97;;;2.03;;
54679;SDS011;40578;53.178;5.846;2023-05-17T05:41:36;11.90;;;2.42;;
54679;SDS011;40578;53.178;5.846;2023-05-17T05:44:02;9.83;;;2.17;;
54679;SDS011;40578;53.178;5.846;2023-05-17T05:46:29;9.53;;;2.30;;
54679;SDS011;40578;53.178;5.846;2023-05-17T05:48:54;7.88;;;2.08;;
54679;SDS011;40578;53.178;5.846;2023-05-17T05:51:20;9.33;;;2.47;;
54679;SDS011;40578;53.178;5.846;2023-05-17T05:53:46;18.53;;;2.57;;
54679;SDS011;40578;53.178;5.846;2023-05-17T05:56:11;10.10;;;2.53;;
54679;SDS011;40578;53.178;5.846;2023-05-17T05:58:37;10.43;;;2.23;;
54679;SDS011;40578;53.178;5.846;2023-05-17T06:01:03;12.13;;;2.43;;
54679;SDS011;40578;53.178;5.846;2023-05-17T06:03:28;9.50;;;2.73;;
54679;SDS011;40578;53.178;5.846;2023-05-17T06:05:54;10.87;;;2.00;;
54679;SDS011;40578;53.178;5.846;2023-05-17T06:08:21;14.87;;;3.27;;
54679;SDS011;40578;53.178;5.846;2023-05-17T06:10:46;8.88;;;2.45;;
54679;SDS011;40578;53.178;5.846;2023-05-17T06:13:12;13.07;;;2.10;;
54679;SDS011;40578;53.178;5.846;2023-05-17T06:15:38;10.67;;;2.17;;
54679;SDS011;40578;53.178;5.846;2023-05-17T06:18:04;17.33;;;2.42;;
54679;SDS011;40578;53.178;5.846;2023-05-17T06:20:30;11.00;;;2.10;;
54679;SDS011;40578;53.178;5.846;2023-05-17T06:22:56;11.53;;;2.50;;
54679;SDS011;40578;53.178;5.846;2023-05-17T06:25:21;11.20;;;2.30;;
54679;SDS011;40578;53.178;5.846;2023-05-17T06:27:47;10.80;;;2.07;;
54679;SDS011;40578;53.178;5.846;2023-05-17T06:30:12;10.77;;;2.13;;
54679;SDS011;40578;53.178;5.846;2023-05-17T06:32:38;13.80;;;2.80;;
54679;SDS011;40578;53.178;5.846;2023-05-17T06:35:04;10.60;;;2.57;;
54679;SDS011;40578;53.178;5.846;2023-05-17T06:37:30;10.43;;;2.70;;
54679;SDS011;40578;53.178;5.846;2023-05-17T06:40:06;13.53;;;2.20;;
54679;SDS011;40578;53.178;5.846;2023-05-17T06:42:33;11.27;;;2.67;;
54679;SDS011;40578;53.178;5.846;2023-05-17T06:44:59;12.77;;;2.60;;
54679;SDS011;40578;53.178;5.846;2023-05-17T06:47:24;9.15;;;2.17;;
54679;SDS011;40578;53.178;5.846;2023-05-17T06:49:50;7.97;;;2.10;;
54679;SDS011;40578;53.178;5.846;2023-05-17T06:52:16;8.83;;;2.87;;
54679;SDS011;40578;53.178;5.846;2023-05-17T06:54:42;10.37;;;2.20;;
54679;SDS011;40578;53.178;5.846;2023-05-17T06:57:07;6.00;;;1.80;;
54679;SDS011;40578;53.178;5.846;2023-05-17T06:59:34;9.43;;;2.10;;
54679;SDS011;40578;53.178;5.846;2023-05-17T07:02:00;8.90;;;2.00;;
54679;SDS011;40578;53.178;5.846;2023-05-17T07:04:26;11.53;;;2.33;;
54679;SDS011;40578;53.178;5.846;2023-05-17T07:06:52;6.87;;;1.80;;
54679;SDS011;40578;53.178;5.846;2023-05-17T07:09:18;13.33;;;2.10;;
54679;SDS011;40578;53.178;5.846;2023-05-17T07:11:45;10.18;;;2.42;;
54679;SDS011;40578;53.178;5.846;2023-05-17T07:14:11;10.20;;;2.40;;
54679;SDS011;40578;53.178;5.846;2023-05-17T07:16:36;13.47;;;2.30;;
54679;SDS011;40578;53.178;5.846;2023-05-17T07:19:02;8.70;;;1.70;;
54679;SDS011;40578;53.178;5.846;2023-05-17T07:21:28;11.67;;;2.40;;
54679;SDS011;40578;53.178;5.846;2023-05-17T07:23:53;7.17;;;2.03;;
54679;SDS011;40578;53.178;5.846;2023-05-17T07:26:19;13.10;;;2.13;;
54679;SDS011;40578;53.178;5.846;2023-05-17T07:28:45;12.13;;;2.70;;
54679;SDS011;40578;53.178;5.846;2023-05-17T07:31:11;16.77;;;2.50;;
54679;SDS011;40578;53.178;5.846;2023-05-17T07:33:37;9.90;;;2.67;;
54679;SDS011;40578;53.178;5.846;2023-05-17T07:36:03;10.27;;;2.67;;
54679;SDS011;40578;53.178;5.846;2023-05-17T07:38:32;6.93;;;2.00;;
54679;SDS011;40578;53.178;5.846;2023-05-17T07:41:04;11.00;;;2.72;;
54679;SDS011;40578;53.178;5.846;2023-05-17T07:43:33;11.23;;;2.13;;
54679;SDS011;40578;53.178;5.846;2023-05-17T07:46:00;9.73;;;2.10;;
54679;SDS011;40578;53.178;5.846;2023-05-17T07:48:26;9.70;;;2.50;;
54679;SDS011;40578;53.178;5.846;2023-05-17T07:50:51;7.63;;;2.00;;
54679;SDS011;40578;53.178;5.846;2023-05-17T07:55:44;11.02;;;2.17;;
54679;SDS011;40578;53.178;5.846;2023-05-17T07:58:09;9.67;;;2.53;;
54679;SDS011;40578;53.178;5.846;2023-05-17T08:00:38;9.75;;;1.83;;
54679;SDS011;40578;53.178;5.846;2023-05-17T08:05:31;11.02;;;2.50;;
54679;SDS011;40578;53.178;5.846;2023-05-17T08:07:56;10.13;;;2.50;;
54679;SDS011;40578;53.178;5.846;2023-05-17T08:10:28;16.65;;;3.03;;
54679;SDS011;40578;53.178;5.846;2023-05-17T08:12:54;10.93;;;2.40;;
54679;SDS011;40578;53.178;5.846;2023-05-17T08:15:20;12.33;;;2.50;;
54679;SDS011;40578;53.178;5.846;2023-05-17T08:17:45;12.20;;;2.90;;
54679;SDS011;40578;53.178;5.846;2023-05-17T08:20:11;13.53;;;2.53;;
54679;SDS011;40578;53.178;5.846;2023-05-17T08:22:37;12.60;;;2.50;;
54679;SDS011;40578;53.178;5.846;2023-05-17T08:25:03;11.07;;;2.90;;
54679;SDS011;40578;53.178;5.846;2023-05-17T08:27:29;12.23;;;2.80;;
54679;SDS011;40578;53.178;5.846;2023-05-17T08:29:56;12.65;;;2.80;;
54679;SDS011;40578;53.178;5.846;2023-05-17T08:32:25;10.10;;;2.60;;
54679;SDS011;40578;53.178;5.846;2023-05-17T08:34:51;13.07;;;2.83;;
54679;SDS011;40578;53.178;5.846;2023-05-17T08:37:17;13.50;;;2.37;;
54679;SDS011;40578;53.178;5.846;2023-05-17T08:39:43;9.57;;;2.10;;
54679;SDS011;40578;53.178;5.846;2023-05-17T08:42:08;12.63;;;2.40;;
54679;SDS011;40578;53.178;5.846;2023-05-17T08:44:35;9.38;;;2.30;;
54679;SDS011;40578;53.178;5.846;2023-05-17T08:47:02;10.43;;;2.53;;
54679;SDS011;40578;53.178;5.846;2023-05-17T08:51:56;11.82;;;2.08;;
54679;SDS011;40578;53.178;5.846;2023-05-17T08:54:23;11.68;;;3.00;;
54679;SDS011;40578;53.178;5.846;2023-05-17T08:56:49;10.47;;;2.17;;
54679;SDS011;40578;53.178;5.846;2023-05-17T08:59:18;8.57;;;2.30;;
54679;SDS011;40578;53.178;5.846;2023-05-17T09:01:45;8.20;;;1.98;;
54679;SDS011;40578;53.178;5.846;2023-05-17T09:04:13;9.07;;;2.13;;
54679;SDS011;40578;53.178;5.846;2023-05-17T09:06:40;7.68;;;1.80;;
54679;SDS011;40578;53.178;5.846;2023-05-17T09:09:07;10.32;;;2.20;;
54679;SDS011;40578;53.178;5.846;2023-05-17T09:11:33;8.73;;;2.08;;
54679;SDS011;40578;53.178;5.846;2023-05-17T09:14:00;11.32;;;2.45;;
54679;SDS011;40578;53.178;5.846;2023-05-17T09:16:28;9.45;;;2.42;;
54679;SDS011;40578;53.178;5.846;2023-05-17T09:18:55;9.05;;;2.28;;
54679;SDS011;40578;53.178;5.846;2023-05-17T09:21:22;11.30;;;2.47;;
54679;SDS011;40578;53.178;5.846;2023-05-17T09:23:50;11.25;;;2.25;;
54679;SDS011;40578;53.178;5.846;2023-05-17T09:26:16;7.10;;;1.48;;
54679;SDS011;40578;53.178;5.846;2023-05-17T09:28:42;8.77;;;2.85;;
54679;SDS011;40578;53.178;5.846;2023-05-17T09:31:09;6.68;;;2.17;;
54679;SDS011;40578;53.178;5.846;2023-05-17T09:33:41;6.80;;;1.52;;
54679;SDS011;40578;53.178;5.846;2023-05-17T09:36:20;6.15;;;1.83;;
54679;SDS011;40578;53.178;5.846;2023-05-17T09:38:57;11.57;;;1.98;;
54679;SDS011;40578;53.178;5.846;2023-05-17T09:41:26;9.02;;;1.88;;
54679;SDS011;40578;53.178;5.846;2023-05-17T09:43:52;10.32;;;1.90;;
54679;SDS011;40578;53.178;5.846;2023-05-17T09:46:20;8.13;;;1.97;;
54679;SDS011;40578;53.178;5.846;2023-05-17T09:48:51;6.63;;;1.73;;
54679;SDS011;40578;53.178;5.846;2023-05-17T09:51:41;6.15;;;1.52;;
54679;SDS011;40578;53.178;5.846;2023-05-17T09:54:07;9.52;;;1.77;;
54679;SDS011;40578;53.178;5.846;2023-05-17T09:56:36;9.75;;;2.35;;
54679;SDS011;40578;53.178;5.846;2023-05-17T09:59:02;6.78;;;1.55;;
54679;SDS011;40578;53.178;5.846;2023-05-17T10:01:34;5.60;;;1.70;;
54679;SDS011;40578;53.178;5.846;2023-05-17T10:04:04;7.57;;;2.15;;
54679;SDS011;40578;53.178;5.846;2023-05-17T10:06:31;7.78;;;2.05;;
54679;SDS011;40578;53.178;5.846;2023-05-17T10:08:58;9.40;;;1.95;;
54679;SDS011;40578;53.178;5.846;2023-05-17T10:11:27;6.63;;;1.55;;
54679;SDS011;40578;53.178;5.846;2023-05-17T10:16:42;7.57;;;2.00;;
54679;SDS011;40578;53.178;5.846;2023-05-17T10:19:09;6.80;;;1.83;;
54679;SDS011;40578;53.178;5.846;2023-05-17T10:21:36;6.57;;;1.88;;
54679;SDS011;40578;53.178;5.846;2023-05-17T10:24:03;7.88;;;2.08;;
54679;SDS011;40578;53.178;5.846;2023-05-17T10:26:30;11.25;;;2.45;;
54679;SDS011;40578;53.178;5.846;2023-05-17T10:28:57;9.15;;;2.25;;
54679;SDS011;40578;53.178;5.846;2023-05-17T10:31:30;10.35;;;2.47;;
54679;SDS011;40578;53.178;5.846;2023-05-17T10:33:58;7.05;;;1.90;;
54679;SDS011;40578;53.178;5.846;2023-05-17T10:36:25;10.70;;;2.40;;
54679;SDS011;40578;53.178;5.846;2023-05-17T10:38:51;11.20;;;2.47;;
54679;SDS011;40578;53.178;5.846;2023-05-17T10:41:18;10.75;;;1.98;;
54679;SDS011;40578;53.178;5.846;2023-05-17T10:43:48;9.50;;;2.45;;
54679;SDS011;40578;53.178;5.846;2023-05-17T10:46:14;10.45;;;2.22;;
54679;SDS011;40578;53.178;5.846;2023-05-17T10:48:42;9.15;;;2.80;;
54679;SDS011;40578;53.178;5.846;2023-05-17T10:51:09;9.10;;;2.00;;
54679;SDS011;40578;53.178;5.846;2023-05-17T10:56:29;9.32;;;2.25;;
54679;SDS011;40578;53.178;5.846;2023-05-17T11:02:04;12.43;;;1.95;;
54679;SDS011;40578;53.178;5.846;2023-05-17T11:09:49;9.20;;;2.20;;
54679;SDS011;40578;53.178;5.846;2023-05-17T11:15:03;10.70;;;2.20;;
54679;SDS011;40578;53.178;5.846;2023-05-17T11:17:52;10.93;;;2.53;;
54679;SDS011;40578;53.178;5.846;2023-05-17T11:27:59;7.65;;;2.30;;
54679;SDS011;40578;53.178;5.846;2023-05-17T11:30:30;8.95;;;2.60;;
54679;SDS011;40578;53.178;5.846;2023-05-17T11:33:00;11.75;;;2.40;;
54679;SDS011;40578;53.178;5.846;2023-05-17T11:35:28;13.02;;;2.70;;
54679;SDS011;40578;53.178;5.846;2023-05-17T11:40:42;6.65;;;2.03;;
54679;SDS011;40578;53.178;5.846;2023-05-17T11:43:11;9.95;;;2.33;;
54679;SDS011;40578;53.178;5.846;2023-05-17T11:45:51;9.00;;;2.53;;
54679;SDS011;40578;53.178;5.846;2023-05-17T11:48:21;7.07;;;2.10;;
54679;SDS011;40578;53.178;5.846;2023-05-17T11:53:15;7.20;;;1.95;;
54679;SDS011;40578;53.178;5.846;2023-05-17T11:55:51;8.95;;;1.70;;
54679;SDS011;40578;53.178;5.846;2023-05-17T11:58:18;9.63;;;2.10;;
54679;SDS011;40578;53.178;5.846;2023-05-17T12:00:51;8.73;;;2.33;;
54679;SDS011;40578;53.178;5.846;2023-05-17T12:05:47;6.45;;;2.05;;
54679;SDS011;40578;53.178;5.846;2023-05-17T12:08:15;8.05;;;2.13;;
54679;SDS011;40578;53.178;5.846;2023-05-17T12:10:45;11.93;;;2.05;;
54679;SDS011;40578;53.178;5.846;2023-05-17T12:13:13;11.57;;;1.98;;
54679;SDS011;40578;53.178;5.846;2023-05-17T12:15:38;7.33;;;1.93;;
54679;SDS011;40578;53.178;5.846;2023-05-17T12:18:05;8.73;;;1.90;;
54679;SDS011;40578;53.178;5.846;2023-05-17T12:20:31;6.67;;;1.63;;
54679;SDS011;40578;53.178;5.846;2023-05-17T12:22:57;8.63;;;2.10;;
54679;SDS011;40578;53.178;5.846;2023-05-17T12:25:23;14.43;;;2.17;;
54679;SDS011;40578;53.178;5.846;2023-05-17T12:27:58;9.95;;;2.25;;
54679;SDS011;40578;53.178;5.846;2023-05-17T12:30:37;9.70;;;2.63;;
54679;SDS011;40578;53.178;5.846;2023-05-17T12:33:12;8.63;;;1.98;;
54679;SDS011;40578;53.178;5.846;2023-05-17T12:35:38;9.05;;;1.92;;
54679;SDS011;40578;53.178;5.846;2023-05-17T12:38:03;8.97;;;2.40;;
54679;SDS011;40578;53.178;5.846;2023-05-17T12:40:29;9.83;;;2.00;;
54679;SDS011;40578;53.178;5.846;2023-05-17T12:43:01;9.70;;;2.30;;
54679;SDS011;40578;53.178;5.846;2023-05-17T12:45:27;4.65;;;1.70;;
54679;SDS011;40578;53.178;5.846;2023-05-17T12:47:53;7.33;;;1.80;;
54679;SDS011;40578;53.178;5.846;2023-05-17T12:50:28;6.43;;;1.80;;
54679;SDS011;40578;53.178;5.846;2023-05-17T12:52:54;8.70;;;1.65;;
54679;SDS011;40578;53.178;5.846;2023-05-17T12:55:20;10.10;;;1.60;;
54679;SDS011;40578;53.178;5.846;2023-05-17T13:00:15;6.72;;;1.98;;
54679;SDS011;40578;53.178;5.846;2023-05-17T13:02:42;9.05;;;2.55;;
54679;SDS011;40578;53.178;5.846;2023-05-17T13:05:17;8.80;;;1.73;;
54679;SDS011;40578;53.178;5.846;2023-05-17T13:07:45;5.93;;;1.55;;
54679;SDS011;40578;53.178;5.846;2023-05-17T13:10:24;7.10;;;1.97;;
54679;SDS011;40578;53.178;5.846;2023-05-17T13:12:58;6.45;;;1.90;;
54679;SDS011;40578;53.178;5.846;2023-05-17T13:15:30;8.93;;;2.00;;
54679;SDS011;40578;53.178;5.846;2023-05-17T13:17:58;6.78;;;2.08;;
54679;SDS011;40578;53.178;5.846;2023-05-17T13:20:25;7.90;;;1.90;;
54679;SDS011;40578;53.178;5.846;2023-05-17T13:22:51;9.40;;;2.10;;
54679;SDS011;40578;53.178;5.846;2023-05-17T13:25:18;8.57;;;1.67;;
54679;SDS011;40578;53.178;5.846;2023-05-17T13:27:45;8.07;;;2.00;;
54679;SDS011;40578;53.178;5.846;2023-05-17T13:30:13;7.70;;;1.80;;
54679;SDS011;40578;53.178;5.846;2023-05-17T13:32:40;9.50;;;2.00;;
54679;SDS011;40578;53.178;5.846;2023-05-17T13:35:06;7.10;;;1.85;;
54679;SDS011;40578;53.178;5.846;2023-05-17T13:37:32;7.97;;;1.43;;
54679;SDS011;40578;53.178;5.846;2023-05-17T13:39:58;3.43;;;1.50;;
54679;SDS011;40578;53.178;5.846;2023-05-17T13:42:23;7.20;;;1.73;;
54679;SDS011;40578;53.178;5.846;2023-05-17T13:44:49;10.07;;;2.10;;
54679;SDS011;40578;53.178;5.846;2023-05-17T13:47:15;4.87;;;1.50;;
54679;SDS011;40578;53.178;5.846;2023-05-17T13:49:41;7.77;;;1.93;;
54679;SDS011;40578;53.178;5.846;2023-05-17T13:52:06;7.97;;;1.80;;
54679;SDS011;40578;53.178;5.846;2023-05-17T13:54:32;7.70;;;1.80;;
54679;SDS011;40578;53.178;5.846;2023-05-17T13:56:58;7.63;;;1.65;;
54679;SDS011;40578;53.178;5.846;2023-05-17T13:59:24;6.30;;;1.63;;
54679;SDS011;40578;53.178;5.846;2023-05-17T14:01:50;8.33;;;1.80;;
54679;SDS011;40578;53.178;5.846;2023-05-17T14:04:16;6.63;;;1.70;;
54679;SDS011;40578;53.178;5.846;2023-05-17T14:06:43;8.02;;;1.80;;
54679;SDS011;40578;53.178;5.846;2023-05-17T14:09:09;10.37;;;2.23;;
54679;SDS011;40578;53.178;5.846;2023-05-17T14:11:37;4.60;;;1.63;;
54679;SDS011;40578;53.178;5.846;2023-05-17T14:14:03;5.25;;;1.85;;
54679;SDS011;40578;53.178;5.846;2023-05-17T14:16:29;8.20;;;1.70;;
54679;SDS011;40578;53.178;5.846;2023-05-17T14:18:55;13.52;;;2.28;;
54679;SDS011;40578;53.178;5.846;2023-05-17T14:21:20;8.70;;;1.90;;
54679;SDS011;40578;53.178;5.846;2023-05-17T14:23:46;9.67;;;1.93;;
54679;SDS011;40578;53.178;5.846;2023-05-17T14:26:12;7.17;;;1.97;;
54679;SDS011;40578;53.178;5.846;2023-05-17T14:28:37;4.87;;;1.70;;
54679;SDS011;40578;53.178;5.846;2023-05-17T14:31:06;6.43;;;1.80;;
54679;SDS011;40578;53.178;5.846;2023-05-17T14:33:33;6.18;;;1.80;;
54679;SDS011;40578;53.178;5.846;2023-05-17T14:35:58;12.57;;;2.10;;
54679;SDS011;40578;53.178;5.846;2023-05-17T14:38:24;5.93;;;1.70;;
54679;SDS011;40578;53.178;5.846;2023-05-17T14:40:50;5.23;;;1.93;;
54679;SDS011;40578;53.178;5.846;2023-05-17T14:43:15;7.13;;;2.07;;
54679;SDS011;40578;53.178;5.846;2023-05-17T14:45:41;9.40;;;2.40;;
54679;SDS011;40578;53.178;5.846;2023-05-17T14:48:06;5.30;;;1.80;;
54679;SDS011;40578;53.178;5.846;2023-05-17T14:50:32;10.57;;;1.80;;
54679;SDS011;40578;53.178;5.846;2023-05-17T14:52:58;8.35;;;2.20;;
54679;SDS011;40578;53.178;5.846;2023-05-17T14:55:24;6.60;;;1.90;;
54679;SDS011;40578;53.178;5.846;2023-05-17T14:57:54;6.85;;;1.65;;
54679;SDS011;40578;53.178;5.846;2023-05-17T15:00:21;12.35;;;2.38;;
54679;SDS011;40578;53.178;5.846;2023-05-17T15:02:48;7.38;;;1.80;;
54679;SDS011;40578;53.178;5.846;2023-05-17T15:05:14;5.23;;;1.87;;
54679;SDS011;40578;53.178;5.846;2023-05-17T15:07:40;9.20;;;2.10;;
54679;SDS011;40578;53.178;5.846;2023-05-17T15:10:05;7.80;;;1.80;;
54679;SDS011;40578;53.178;5.846;2023-05-17T15:14:57;6.22;;;2.08;;
54679;SDS011;40578;53.178;5.846;2023-05-17T15:17:23;11.30;;;2.47;;
54679;SDS011;40578;53.178;5.846;2023-05-17T15:19:49;8.70;;;1.87;;
54679;SDS011;40578;53.178;5.846;2023-05-17T15:22:15;8.25;;;1.90;;
54679;SDS011;40578;53.178;5.846;2023-05-17T15:24:41;10.73;;;2.08;;
54679;SDS011;40578;53.178;5.846;2023-05-17T15:29:36;9.45;;;2.35;;
54679;SDS011;40578;53.178;5.846;2023-05-17T15:32:04;9.00;;;2.05;;
54679;SDS011;40578;53.178;5.846;2023-05-17T15:34:31;6.15;;;1.67;;
54679;SDS011;40578;53.178;5.846;2023-05-17T15:36:56;6.60;;;1.80;;
54679;SDS011;40578;53.178;5.846;2023-05-17T15:39:22;8.70;;;1.87;;
54679;SDS011;40578;53.178;5.846;2023-05-17T15:41:48;5.63;;;1.80;;
54679;SDS011;40578;53.178;5.846;2023-05-17T15:44:13;6.67;;;1.60;;
54679;SDS011;40578;53.178;5.846;2023-05-17T15:46:39;6.43;;;1.80;;